Sjobris — SLXP — position and weather

sailwx.info

Track history (hours):
 
Tides and Currents Weather Stations Pressure Air Temp Water Temp Dewpoint Dewpoint Depression Visibility Wind Speed Wind Dir Waves Ship Positions

Sjobris

Last reported at 2016-Jul-25 21:33 UTC. Time now 2016-Jul-25 21:58 UTC.
Position N 59°20' E 018°05'.

Length 38 m.

Type: Passenger vessel. MMSI: 265522700.

Date/timePositionNaut miles runAvg speedWind from/ knotsBaromVisibWave heightAir tempDewpointWater temp
2016-Jul-25 21:33N 59°20' E 018°05'0 0.0
2016-Jul-25 20:34N 59°20' E 018°05'0 0.0
2016-Jul-25 19:33N 59°20' E 018°05'3 2.6
2016-Jul-25 18:30N 59°19' E 018°10'41 6.5
2016-Jul-25 12:14N 59°48' E 019°07'6 8.9
2016-Jul-25 11:33N 59°42' E 019°03'3411.0
2016-Jul-25 08:26N 59°20' E 018°12'1 1.2
2016-Jul-25 07:28N 59°19' E 018°10'1 0.1
2016-Jul-24 19:20N 59°20' E 018°12'4 4.8
2016-Jul-24 18:30N 59°19' E 018°05'0 0.0
2016-Jul-24 04:23N 59°20' E 018°05'0 0.0
2016-Jul-24 03:33N 59°20' E 018°05'0 0.0
2016-Jul-24 02:19N 59°20' E 018°05'0 0.0
2016-Jul-24 01:32N 59°20' E 018°05'0 0.0
2016-Jul-24 00:34N 59°20' E 018°05'0 0.0
2016-Jul-23 23:31N 59°20' E 018°05'0 0.0
2016-Jul-23 22:33N 59°20' E 018°05'0 0.0
2016-Jul-23 21:33N 59°20' E 018°05'0 0.0
2016-Jul-23 20:33N 59°20' E 018°05'0 0.0
2016-Jul-23 19:33N 59°20' E 018°05'0 0.0
2016-Jul-23 06:34N 59°20' E 018°05'0 0.0
2016-Jul-23 04:34N 59°20' E 018°05'0 0.0
2016-Jul-23 03:34N 59°20' E 018°05'0 0.0
2016-Jul-23 02:34N 59°20' E 018°05'0 0.0
2016-Jul-23 01:34N 59°20' E 018°05'0 0.0
2016-Jul-23 00:33N 59°20' E 018°05'0 0.0
2016-Jul-22 23:34N 59°20' E 018°05'0 0.0
2016-Jul-22 22:34N 59°20' E 018°05'0 0.0
2016-Jul-22 21:34N 59°20' E 018°05'0 0.0
2016-Jul-22 20:33N 59°20' E 018°05'0 0.0
2016-Jul-22 19:34N 59°20' E 018°05'4 4.2
2016-Jul-22 18:32N 59°20' E 018°13'4 0.4
2016-Jul-22 08:10N 59°19' E 018°06'0 0.7
2016-Jul-22 07:31N 59°19' E 018°05'1 0.1
2016-Jul-21 16:25N 59°19' E 018°07'3 0.3
2016-Jul-21 07:07N 59°20' E 018°12'4 7.0
2016-Jul-21 06:33N 59°20' E 018°04'0 0.0
2016-Jul-21 05:32N 59°20' E 018°04'0 0.0
2016-Jul-21 04:33N 59°20' E 018°05'0 0.0
2016-Jul-21 03:33N 59°20' E 018°05'0 0.0
2016-Jul-21 02:33N 59°20' E 018°05'0 0.0
2016-Jul-21 01:34N 59°20' E 018°05'0 0.0
2016-Jul-21 00:33N 59°20' E 018°05'0 0.0
2016-Jul-20 23:33N 59°20' E 018°04'0 0.0
2016-Jul-20 22:33N 59°20' E 018°04'0 0.0
2016-Jul-20 21:32N 59°20' E 018°05'0 0.0
2016-Jul-20 20:33N 59°20' E 018°04'0 0.0
2016-Jul-20 19:30N 59°20' E 018°05'4 0.3
2016-Jul-20 08:21N 59°20' E 018°11'4 4.1
2016-Jul-20 07:30N 59°20' E 018°05'0 0.1
2016-Jul-20 06:34N 59°20' E 018°04'0 0.0
2016-Jul-20 05:33N 59°20' E 018°04'0 0.0
2016-Jul-20 04:33N 59°20' E 018°04'0 0.0
2016-Jul-20 03:33N 59°20' E 018°04'0 0.0
2016-Jul-20 02:33N 59°20' E 018°04'0 0.0
2016-Jul-20 01:33N 59°20' E 018°04'0 0.0
2016-Jul-20 00:33N 59°20' E 018°04'0 0.0
2016-Jul-19 23:33N 59°20' E 018°04'0 0.0
2016-Jul-19 22:33N 59°20' E 018°04'0 0.0
2016-Jul-19 21:33N 59°20' E 018°04'0 0.0
2016-Jul-19 20:33N 59°20' E 018°04'0 0.0
2016-Jul-19 19:33N 59°20' E 018°04'0 0.0
2016-Jul-19 18:33N 59°20' E 018°04'0 0.0
2016-Jul-19 17:33N 59°20' E 018°04'0 0.1
2016-Jul-19 16:23N 59°20' E 018°05'4 0.4
2016-Jul-19 07:07N 59°20' E 018°11'4 1.4
2016-Jul-19 04:33N 59°20' E 018°05'0 0.0
2016-Jul-19 03:33N 59°20' E 018°05'0 0.0
2016-Jul-19 02:33N 59°20' E 018°05'0 0.0
2016-Jul-19 01:33N 59°20' E 018°05'0 0.0
2016-Jul-19 00:33N 59°20' E 018°05'0 0.0
2016-Jul-18 23:33N 59°20' E 018°05'0 0.0
2016-Jul-18 22:33N 59°20' E 018°05'0 0.0
2016-Jul-18 21:33N 59°20' E 018°05'0 0.0
2016-Jul-18 20:33N 59°20' E 018°05'0 0.0
2016-Jul-18 19:34N 59°20' E 018°05'4 0.4
2016-Jul-18 08:22N 59°20' E 018°12'4 4.7
2016-Jul-18 07:32N 59°19' E 018°05'4 0.3
2016-Jul-17 19:15N 59°20' E 018°12'4 5.4
2016-Jul-17 18:33N 59°19' E 018°05'4 0.3
2016-Jul-17 07:06N 59°20' E 018°12'4 7.5
2016-Jul-17 06:33N 59°20' E 018°05'0 0.0
2016-Jul-17 04:33N 59°20' E 018°05'0 0.0
2016-Jul-17 03:33N 59°20' E 018°05'0 0.0
2016-Jul-17 02:33N 59°20' E 018°05'0 0.0
2016-Jul-17 01:33N 59°20' E 018°05'0 0.0
2016-Jul-17 00:33N 59°20' E 018°05'0 0.0
2016-Jul-16 23:33N 59°20' E 018°05'0 0.0
2016-Jul-16 22:33N 59°20' E 018°05'0 0.0
2016-Jul-16 21:33N 59°20' E 018°05'0 0.0
2016-Jul-16 20:33N 59°20' E 018°05'0 0.0
2016-Jul-16 19:33N 59°20' E 018°05'1 0.6
2016-Jul-16 18:33N 59°19' E 018°05'3 0.3
2016-Jul-16 07:05N 59°20' E 018°12'4 6.8
2016-Jul-16 06:34N 59°20' E 018°05'0 0.0
2016-Jul-16 04:33N 59°20' E 018°05'0 0.0
2016-Jul-16 03:33N 59°20' E 018°05'0 0.0
2016-Jul-16 02:33N 59°20' E 018°05'0 0.0
2016-Jul-16 01:33N 59°20' E 018°05'0 0.0
2016-Jul-16 00:33N 59°20' E 018°05'0 0.0
2016-Jul-15 23:33N 59°20' E 018°05'0 0.0
2016-Jul-15 22:34N 59°20' E 018°05'0 0.0
2016-Jul-15 21:33N 59°20' E 018°05'  
Track history (hours):
 
Tides and Currents Weather Stations Pressure Air Temp Water Temp Dewpoint Dewpoint Depression Visibility Wind Speed Wind Dir Waves Ship Positions

Sjobris

Last reported at 2016-Jul-25 21:33 UTC. Time now 2016-Jul-25 21:58 UTC.
Position N 59°20' E 018°05'.

Length 38 m.

Type: Passenger vessel. MMSI: 265522700.

Date/timePositionNaut miles runAvg speedWind from/ knotsBaromVisibWave heightAir tempDewpointWater temp
2016-Jul-25 21:33N 59°20' E 018°05'0 0.0
2016-Jul-25 20:34N 59°20' E 018°05'0 0.0
2016-Jul-25 19:33N 59°20' E 018°05'3 2.6
2016-Jul-25 18:30N 59°19' E 018°10'41 6.5
2016-Jul-25 12:14N 59°48' E 019°07'6 8.9
2016-Jul-25 11:33N 59°42' E 019°03'3411.0
2016-Jul-25 08:26N 59°20' E 018°12'1 1.2
2016-Jul-25 07:28N 59°19' E 018°10'1 0.1
2016-Jul-24 19:20N 59°20' E 018°12'4 4.8
2016-Jul-24 18:30N 59°19' E 018°05'0 0.0
2016-Jul-24 04:23N 59°20' E 018°05'0 0.0
2016-Jul-24 03:33N 59°20' E 018°05'0 0.0
2016-Jul-24 02:19N 59°20' E 018°05'0 0.0
2016-Jul-24 01:32N 59°20' E 018°05'0 0.0
2016-Jul-24 00:34N 59°20' E 018°05'0 0.0
2016-Jul-23 23:31N 59°20' E 018°05'0 0.0
2016-Jul-23 22:33N 59°20' E 018°05'0 0.0
2016-Jul-23 21:33N 59°20' E 018°05'0 0.0
2016-Jul-23 20:33N 59°20' E 018°05'0 0.0
2016-Jul-23 19:33N 59°20' E 018°05'0 0.0
2016-Jul-23 06:34N 59°20' E 018°05'0 0.0
2016-Jul-23 04:34N 59°20' E 018°05'0 0.0
2016-Jul-23 03:34N 59°20' E 018°05'0 0.0
2016-Jul-23 02:34N 59°20' E 018°05'0 0.0
2016-Jul-23 01:34N 59°20' E 018°05'0 0.0
2016-Jul-23 00:33N 59°20' E 018°05'0 0.0
2016-Jul-22 23:34N 59°20' E 018°05'0 0.0
2016-Jul-22 22:34N 59°20' E 018°05'0 0.0
2016-Jul-22 21:34N 59°20' E 018°05'0 0.0
2016-Jul-22 20:33N 59°20' E 018°05'0 0.0
2016-Jul-22 19:34N 59°20' E 018°05'4 4.2
2016-Jul-22 18:32N 59°20' E 018°13'4 0.4
2016-Jul-22 08:10N 59°19' E 018°06'0 0.7
2016-Jul-22 07:31N 59°19' E 018°05'1 0.1
2016-Jul-21 16:25N 59°19' E 018°07'3 0.3
2016-Jul-21 07:07N 59°20' E 018°12'4 7.0
2016-Jul-21 06:33N 59°20' E 018°04'0 0.0
2016-Jul-21 05:32N 59°20' E 018°04'0 0.0
2016-Jul-21 04:33N 59°20' E 018°05'0 0.0
2016-Jul-21 03:33N 59°20' E 018°05'0 0.0
2016-Jul-21 02:33N 59°20' E 018°05'0 0.0
2016-Jul-21 01:34N 59°20' E 018°05'0 0.0
2016-Jul-21 00:33N 59°20' E 018°05'0 0.0
2016-Jul-20 23:33N 59°20' E 018°04'0 0.0
2016-Jul-20 22:33N 59°20' E 018°04'0 0.0
2016-Jul-20 21:32N 59°20' E 018°05'0 0.0
2016-Jul-20 20:33N 59°20' E 018°04'0 0.0
2016-Jul-20 19:30N 59°20' E 018°05'4 0.3
2016-Jul-20 08:21N 59°20' E 018°11'4 4.1
2016-Jul-20 07:30N 59°20' E 018°05'0 0.1
2016-Jul-20 06:34N 59°20' E 018°04'0 0.0
2016-Jul-20 05:33N 59°20' E 018°04'0 0.0
2016-Jul-20 04:33N 59°20' E 018°04'0 0.0
2016-Jul-20 03:33N 59°20' E 018°04'0 0.0
2016-Jul-20 02:33N 59°20' E 018°04'0 0.0
2016-Jul-20 01:33N 59°20' E 018°04'0 0.0
2016-Jul-20 00:33N 59°20' E 018°04'0 0.0
2016-Jul-19 23:33N 59°20' E 018°04'0 0.0
2016-Jul-19 22:33N 59°20' E 018°04'0 0.0
2016-Jul-19 21:33N 59°20' E 018°04'0 0.0
2016-Jul-19 20:33N 59°20' E 018°04'0 0.0
2016-Jul-19 19:33N 59°20' E 018°04'0 0.0
2016-Jul-19 18:33N 59°20' E 018°04'0 0.0
2016-Jul-19 17:33N 59°20' E 018°04'0 0.1
2016-Jul-19 16:23N 59°20' E 018°05'4 0.4
2016-Jul-19 07:07N 59°20' E 018°11'4 1.4
2016-Jul-19 04:33N 59°20' E 018°05'0 0.0
2016-Jul-19 03:33N 59°20' E 018°05'0 0.0
2016-Jul-19 02:33N 59°20' E 018°05'0 0.0
2016-Jul-19 01:33N 59°20' E 018°05'0 0.0
2016-Jul-19 00:33N 59°20' E 018°05'0 0.0
2016-Jul-18 23:33N 59°20' E 018°05'0 0.0
2016-Jul-18 22:33N 59°20' E 018°05'0 0.0
2016-Jul-18 21:33N 59°20' E 018°05'0 0.0
2016-Jul-18 20:33N 59°20' E 018°05'0 0.0
2016-Jul-18 19:34N 59°20' E 018°05'4 0.4
2016-Jul-18 08:22N 59°20' E 018°12'4 4.7
2016-Jul-18 07:32N 59°19' E 018°05'4 0.3
2016-Jul-17 19:15N 59°20' E 018°12'4 5.4
2016-Jul-17 18:33N 59°19' E 018°05'4 0.3
2016-Jul-17 07:06N 59°20' E 018°12'4 7.5
2016-Jul-17 06:33N 59°20' E 018°05'0 0.0
2016-Jul-17 04:33N 59°20' E 018°05'0 0.0
2016-Jul-17 03:33N 59°20' E 018°05'0 0.0
2016-Jul-17 02:33N 59°20' E 018°05'0 0.0
2016-Jul-17 01:33N 59°20' E 018°05'0 0.0
2016-Jul-17 00:33N 59°20' E 018°05'0 0.0
2016-Jul-16 23:33N 59°20' E 018°05'0 0.0
2016-Jul-16 22:33N 59°20' E 018°05'0 0.0
2016-Jul-16 21:33N 59°20' E 018°05'0 0.0
2016-Jul-16 20:33N 59°20' E 018°05'0 0.0
2016-Jul-16 19:33N 59°20' E 018°05'1 0.6
2016-Jul-16 18:33N 59°19' E 018°05'3 0.3
2016-Jul-16 07:05N 59°20' E 018°12'4 6.8
2016-Jul-16 06:34N 59°20' E 018°05'0 0.0
2016-Jul-16 04:33N 59°20' E 018°05'0 0.0
2016-Jul-16 03:33N 59°20' E 018°05'0 0.0
2016-Jul-16 02:33N 59°20' E 018°05'0 0.0
2016-Jul-16 01:33N 59°20' E 018°05'0 0.0
2016-Jul-16 00:33N 59°20' E 018°05'0 0.0
2016-Jul-15 23:33N 59°20' E 018°05'0 0.0
2016-Jul-15 22:34N 59°20' E 018°05'0 0.0
2016-Jul-15 21:33N 59°20' E 018°05'  

Dump ship's entire track history